sensor_id;sensor_type;location;lat;lon;timestamp;P1;durP1;ratioP1;P2;durP2;ratioP2
6203;SDS011;3135;42.602;23.468;2023-01-13T00:00:43;6.80;;;4.00;;
6203;SDS011;3135;42.602;23.468;2023-01-13T00:03:08;6.28;;;3.85;;
6203;SDS011;3135;42.602;23.468;2023-01-13T00:05:34;6.70;;;4.17;;
6203;SDS011;3135;42.602;23.468;2023-01-13T00:08:00;6.88;;;4.05;;
6203;SDS011;3135;42.602;23.468;2023-01-13T00:10:28;8.20;;;4.50;;
6203;SDS011;3135;42.602;23.468;2023-01-13T00:12:54;6.13;;;3.70;;
6203;SDS011;3135;42.602;23.468;2023-01-13T00:15:19;14.73;;;6.60;;
6203;SDS011;3135;42.602;23.468;2023-01-13T00:17:45;9.50;;;4.37;;
6203;SDS011;3135;42.602;23.468;2023-01-13T00:20:12;6.35;;;3.83;;
6203;SDS011;3135;42.602;23.468;2023-01-13T00:22:38;6.45;;;3.90;;
6203;SDS011;3135;42.602;23.468;2023-01-13T00:25:04;6.82;;;3.88;;
6203;SDS011;3135;42.602;23.468;2023-01-13T00:27:30;4.53;;;3.10;;
6203;SDS011;3135;42.602;23.468;2023-01-13T00:29:56;6.05;;;3.50;;
6203;SDS011;3135;42.602;23.468;2023-01-13T00:32:22;7.13;;;3.70;;
6203;SDS011;3135;42.602;23.468;2023-01-13T00:34:47;7.43;;;4.00;;
6203;SDS011;3135;42.602;23.468;2023-01-13T00:37:13;5.60;;;3.57;;
6203;SDS011;3135;42.602;23.468;2023-01-13T00:39:39;4.87;;;3.20;;
6203;SDS011;3135;42.602;23.468;2023-01-13T00:42:05;6.53;;;3.50;;
6203;SDS011;3135;42.602;23.468;2023-01-13T00:44:49;7.05;;;3.88;;
6203;SDS011;3135;42.602;23.468;2023-01-13T00:47:15;7.63;;;4.07;;
6203;SDS011;3135;42.602;23.468;2023-01-13T00:49:40;9.27;;;4.10;;
6203;SDS011;3135;42.602;23.468;2023-01-13T00:52:06;7.83;;;4.30;;
6203;SDS011;3135;42.602;23.468;2023-01-13T00:54:31;8.70;;;4.60;;
6203;SDS011;3135;42.602;23.468;2023-01-13T00:56:57;8.85;;;4.25;;
6203;SDS011;3135;42.602;23.468;2023-01-13T00:59:22;7.97;;;4.40;;
6203;SDS011;3135;42.602;23.468;2023-01-13T01:01:47;8.17;;;4.63;;
6203;SDS011;3135;42.602;23.468;2023-01-13T01:04:13;9.53;;;4.50;;
6203;SDS011;3135;42.602;23.468;2023-01-13T01:06:38;6.63;;;4.07;;
6203;SDS011;3135;42.602;23.468;2023-01-13T01:09:04;7.93;;;4.50;;
6203;SDS011;3135;42.602;23.468;2023-01-13T01:11:30;7.28;;;4.10;;
6203;SDS011;3135;42.602;23.468;2023-01-13T01:13:58;9.90;;;4.70;;
6203;SDS011;3135;42.602;23.468;2023-01-13T01:16:27;8.70;;;4.32;;
6203;SDS011;3135;42.602;23.468;2023-01-13T01:18:54;9.27;;;5.10;;
6203;SDS011;3135;42.602;23.468;2023-01-13T01:21:20;7.85;;;4.75;;
6203;SDS011;3135;42.602;23.468;2023-01-13T01:23:46;8.48;;;4.65;;
6203;SDS011;3135;42.602;23.468;2023-01-13T01:26:13;7.33;;;4.00;;
6203;SDS011;3135;42.602;23.468;2023-01-13T01:28:41;7.18;;;4.10;;
6203;SDS011;3135;42.602;23.468;2023-01-13T01:31:09;7.28;;;4.80;;
6203;SDS011;3135;42.602;23.468;2023-01-13T01:33:38;8.25;;;3.95;;
6203;SDS011;3135;42.602;23.468;2023-01-13T01:36:05;8.77;;;4.10;;
6203;SDS011;3135;42.602;23.468;2023-01-13T01:38:31;8.05;;;4.22;;
6203;SDS011;3135;42.602;23.468;2023-01-13T01:40:56;7.65;;;4.40;;
6203;SDS011;3135;42.602;23.468;2023-01-13T01:43:22;6.13;;;3.77;;
6203;SDS011;3135;42.602;23.468;2023-01-13T01:46:23;7.68;;;4.22;;
6203;SDS011;3135;42.602;23.468;2023-01-13T01:51:52;6.43;;;3.85;;
6203;SDS011;3135;42.602;23.468;2023-01-13T01:55:05;7.13;;;4.03;;
6203;SDS011;3135;42.602;23.468;2023-01-13T01:57:35;7.43;;;4.40;;
6203;SDS011;3135;42.602;23.468;2023-01-13T02:00:07;8.73;;;4.30;;
6203;SDS011;3135;42.602;23.468;2023-01-13T02:02:33;7.38;;;4.22;;
6203;SDS011;3135;42.602;23.468;2023-01-13T02:05:00;7.85;;;4.45;;
6203;SDS011;3135;42.602;23.468;2023-01-13T02:07:27;8.03;;;3.90;;
6203;SDS011;3135;42.602;23.468;2023-01-13T02:09:55;7.65;;;3.88;;
6203;SDS011;3135;42.602;23.468;2023-01-13T02:12:23;6.67;;;3.90;;
6203;SDS011;3135;42.602;23.468;2023-01-13T02:14:54;7.45;;;4.30;;
6203;SDS011;3135;42.602;23.468;2023-01-13T02:17:27;8.43;;;4.35;;
6203;SDS011;3135;42.602;23.468;2023-01-13T02:26:15;7.40;;;4.10;;
6203;SDS011;3135;42.602;23.468;2023-01-13T02:32:38;7.05;;;4.38;;
6203;SDS011;3135;42.602;23.468;2023-01-13T02:37:37;7.00;;;4.25;;
6203;SDS011;3135;42.602;23.468;2023-01-13T02:42:35;6.18;;;4.00;;
6203;SDS011;3135;42.602;23.468;2023-01-13T02:45:28;5.78;;;3.78;;
6203;SDS011;3135;42.602;23.468;2023-01-13T02:47:58;6.00;;;3.70;;
6203;SDS011;3135;42.602;23.468;2023-01-13T02:50:31;5.47;;;3.47;;
6203;SDS011;3135;42.602;23.468;2023-01-13T02:53:07;4.72;;;3.15;;
6203;SDS011;3135;42.602;23.468;2023-01-13T02:55:40;3.45;;;2.50;;
6203;SDS011;3135;42.602;23.468;2023-01-13T02:58:12;4.18;;;3.35;;
6203;SDS011;3135;42.602;23.468;2023-01-13T03:00:41;4.78;;;3.15;;
6203;SDS011;3135;42.602;23.468;2023-01-13T03:03:07;5.15;;;2.90;;
6203;SDS011;3135;42.602;23.468;2023-01-13T03:05:33;3.30;;;2.80;;
6203;SDS011;3135;42.602;23.468;2023-01-13T03:10:45;4.27;;;2.60;;
6203;SDS011;3135;42.602;23.468;2023-01-13T03:13:24;4.95;;;3.00;;
6203;SDS011;3135;42.602;23.468;2023-01-13T03:25:12;3.30;;;2.60;;
6203;SDS011;3135;42.602;23.468;2023-01-13T03:27:56;3.25;;;2.22;;
6203;SDS011;3135;42.602;23.468;2023-01-13T03:33:28;9.65;;;4.65;;
6203;SDS011;3135;42.602;23.468;2023-01-13T03:36:04;9.70;;;5.20;;
6203;SDS011;3135;42.602;23.468;2023-01-13T03:38:36;3.47;;;2.63;;
6203;SDS011;3135;42.602;23.468;2023-01-13T03:41:10;5.50;;;3.58;;
6203;SDS011;3135;42.602;23.468;2023-01-13T03:50:05;5.77;;;3.80;;
6203;SDS011;3135;42.602;23.468;2023-01-13T03:55:44;3.13;;;2.50;;
6203;SDS011;3135;42.602;23.468;2023-01-13T03:58:15;3.10;;;2.50;;
6203;SDS011;3135;42.602;23.468;2023-01-13T04:03:35;3.92;;;2.28;;
6203;SDS011;3135;42.602;23.468;2023-01-13T04:09:08;2.10;;;1.85;;
6203;SDS011;3135;42.602;23.468;2023-01-13T04:14:48;2.42;;;1.95;;
6203;SDS011;3135;42.602;23.468;2023-01-13T04:17:15;2.28;;;1.90;;
6203;SDS011;3135;42.602;23.468;2023-01-13T04:19:41;2.00;;;1.80;;
6203;SDS011;3135;42.602;23.468;2023-01-13T04:22:06;2.90;;;1.95;;
6203;SDS011;3135;42.602;23.468;2023-01-13T04:24:32;1.83;;;1.70;;
6203;SDS011;3135;42.602;23.468;2023-01-13T04:26:57;3.67;;;2.27;;
6203;SDS011;3135;42.602;23.468;2023-01-13T04:29:22;2.53;;;2.30;;
6203;SDS011;3135;42.602;23.468;2023-01-13T04:31:48;2.37;;;1.90;;
6203;SDS011;3135;42.602;23.468;2023-01-13T04:34:13;2.70;;;2.23;;
6203;SDS011;3135;42.602;23.468;2023-01-13T04:36:39;3.55;;;2.30;;
6203;SDS011;3135;42.602;23.468;2023-01-13T04:39:04;3.40;;;2.13;;
6203;SDS011;3135;42.602;23.468;2023-01-13T04:41:29;2.83;;;2.00;;
6203;SDS011;3135;42.602;23.468;2023-01-13T04:44:18;2.60;;;1.83;;
6203;SDS011;3135;42.602;23.468;2023-01-13T04:46:43;3.50;;;2.20;;
6203;SDS011;3135;42.602;23.468;2023-01-13T04:49:09;3.63;;;2.40;;
6203;SDS011;3135;42.602;23.468;2023-01-13T04:51:34;3.37;;;2.13;;
6203;SDS011;3135;42.602;23.468;2023-01-13T04:54:00;2.67;;;2.10;;
6203;SDS011;3135;42.602;23.468;2023-01-13T04:56:25;3.53;;;2.13;;
6203;SDS011;3135;42.602;23.468;2023-01-13T04:58:51;3.37;;;2.50;;
6203;SDS011;3135;42.602;23.468;2023-01-13T05:01:16;2.33;;;1.93;;
6203;SDS011;3135;42.602;23.468;2023-01-13T05:03:41;2.20;;;2.00;;
6203;SDS011;3135;42.602;23.468;2023-01-13T05:06:07;2.80;;;2.20;;
6203;SDS011;3135;42.602;23.468;2023-01-13T05:08:32;2.83;;;2.30;;
6203;SDS011;3135;42.602;23.468;2023-01-13T05:11:01;3.45;;;2.25;;
6203;SDS011;3135;42.602;23.468;2023-01-13T05:13:46;4.20;;;2.50;;
6203;SDS011;3135;42.602;23.468;2023-01-13T05:16:30;4.77;;;2.80;;
6203;SDS011;3135;42.602;23.468;2023-01-13T05:19:14;2.67;;;2.33;;
6203;SDS011;3135;42.602;23.468;2023-01-13T05:21:39;3.07;;;2.10;;
6203;SDS011;3135;42.602;23.468;2023-01-13T05:24:24;2.97;;;2.17;;
6203;SDS011;3135;42.602;23.468;2023-01-13T05:27:08;3.10;;;1.85;;
6203;SDS011;3135;42.602;23.468;2023-01-13T05:29:33;2.37;;;2.17;;
6203;SDS011;3135;42.602;23.468;2023-01-13T05:31:59;2.57;;;2.10;;
6203;SDS011;3135;42.602;23.468;2023-01-13T05:34:26;2.80;;;1.93;;
6203;SDS011;3135;42.602;23.468;2023-01-13T05:36:52;2.33;;;1.80;;
6203;SDS011;3135;42.602;23.468;2023-01-13T05:39:17;2.30;;;1.70;;
6203;SDS011;3135;42.602;23.468;2023-01-13T05:41:42;3.77;;;1.90;;
6203;SDS011;3135;42.602;23.468;2023-01-13T05:44:27;2.60;;;1.93;;
6203;SDS011;3135;42.602;23.468;2023-01-13T05:46:52;2.00;;;1.80;;
6203;SDS011;3135;42.602;23.468;2023-01-13T05:49:17;2.43;;;1.80;;
6203;SDS011;3135;42.602;23.468;2023-01-13T05:51:43;1.90;;;1.70;;
6203;SDS011;3135;42.602;23.468;2023-01-13T05:54:08;2.67;;;2.00;;
6203;SDS011;3135;42.602;23.468;2023-01-13T05:56:34;2.40;;;1.80;;
6203;SDS011;3135;42.602;23.468;2023-01-13T05:58:59;2.50;;;1.43;;
6203;SDS011;3135;42.602;23.468;2023-01-13T06:01:24;1.67;;;1.57;;
6203;SDS011;3135;42.602;23.468;2023-01-13T06:03:50;1.67;;;1.53;;
6203;SDS011;3135;42.602;23.468;2023-01-13T06:06:15;3.00;;;1.73;;
6203;SDS011;3135;42.602;23.468;2023-01-13T06:08:41;2.00;;;1.60;;
6203;SDS011;3135;42.602;23.468;2023-01-13T06:11:06;1.83;;;1.70;;
6203;SDS011;3135;42.602;23.468;2023-01-13T06:13:31;2.33;;;1.93;;
6203;SDS011;3135;42.602;23.468;2023-01-13T06:15:57;2.00;;;1.80;;
6203;SDS011;3135;42.602;23.468;2023-01-13T06:18:23;3.25;;;2.30;;
6203;SDS011;3135;42.602;23.468;2023-01-13T06:20:49;3.00;;;2.30;;
6203;SDS011;3135;42.602;23.468;2023-01-13T06:23:14;2.85;;;2.30;;
6203;SDS011;3135;42.602;23.468;2023-01-13T06:25:45;3.45;;;2.22;;
6203;SDS011;3135;42.602;23.468;2023-01-13T06:28:15;3.05;;;2.40;;
6203;SDS011;3135;42.602;23.468;2023-01-13T06:30:42;2.53;;;2.10;;
6203;SDS011;3135;42.602;23.468;2023-01-13T06:33:14;35.70;;;10.40;;
6203;SDS011;3135;42.602;23.468;2023-01-13T06:35:44;5.55;;;3.25;;
6203;SDS011;3135;42.602;23.468;2023-01-13T06:38:16;4.55;;;3.30;;
6203;SDS011;3135;42.602;23.468;2023-01-13T06:40:44;4.68;;;3.25;;
6203;SDS011;3135;42.602;23.468;2023-01-13T06:43:09;4.20;;;3.10;;
6203;SDS011;3135;42.602;23.468;2023-01-13T06:45:45;4.78;;;3.50;;
6203;SDS011;3135;42.602;23.468;2023-01-13T06:48:15;8.25;;;4.53;;
6203;SDS011;3135;42.602;23.468;2023-01-13T06:50:42;7.38;;;4.35;;
6203;SDS011;3135;42.602;23.468;2023-01-13T06:53:08;8.40;;;4.40;;
6203;SDS011;3135;42.602;23.468;2023-01-13T06:55:34;10.77;;;4.88;;
6203;SDS011;3135;42.602;23.468;2023-01-13T06:57:59;8.67;;;5.30;;
6203;SDS011;3135;42.602;23.468;2023-01-13T07:00:25;10.53;;;6.00;;
6203;SDS011;3135;42.602;23.468;2023-01-13T07:02:51;11.32;;;5.88;;
6203;SDS011;3135;42.602;23.468;2023-01-13T07:05:17;12.70;;;6.63;;
6203;SDS011;3135;42.602;23.468;2023-01-13T07:07:43;12.52;;;6.10;;
6203;SDS011;3135;42.602;23.468;2023-01-13T07:10:10;12.63;;;6.18;;
6203;SDS011;3135;42.602;23.468;2023-01-13T07:12:37;11.88;;;6.10;;
6203;SDS011;3135;42.602;23.468;2023-01-13T07:15:23;12.27;;;6.40;;
6203;SDS011;3135;42.602;23.468;2023-01-13T07:17:49;12.00;;;5.95;;
6203;SDS011;3135;42.602;23.468;2023-01-13T07:20:15;11.83;;;6.17;;
6203;SDS011;3135;42.602;23.468;2023-01-13T07:22:41;10.20;;;5.22;;
6203;SDS011;3135;42.602;23.468;2023-01-13T07:25:07;10.32;;;4.85;;
6203;SDS011;3135;42.602;23.468;2023-01-13T07:27:33;9.95;;;4.95;;
6203;SDS011;3135;42.602;23.468;2023-01-13T07:29:59;8.10;;;4.05;;
6203;SDS011;3135;42.602;23.468;2023-01-13T07:32:24;6.90;;;4.30;;
6203;SDS011;3135;42.602;23.468;2023-01-13T07:34:50;7.40;;;4.70;;
6203;SDS011;3135;42.602;23.468;2023-01-13T07:37:15;6.63;;;4.10;;
6203;SDS011;3135;42.602;23.468;2023-01-13T07:39:41;9.18;;;5.45;;
6203;SDS011;3135;42.602;23.468;2023-01-13T07:42:07;11.75;;;5.53;;
6203;SDS011;3135;42.602;23.468;2023-01-13T07:45:05;8.73;;;5.03;;
6203;SDS011;3135;42.602;23.468;2023-01-13T07:47:31;8.50;;;5.20;;
6203;SDS011;3135;42.602;23.468;2023-01-13T07:49:57;9.43;;;4.93;;
6203;SDS011;3135;42.602;23.468;2023-01-13T07:52:22;9.93;;;5.32;;
6203;SDS011;3135;42.602;23.468;2023-01-13T07:54:47;11.88;;;6.20;;
6203;SDS011;3135;42.602;23.468;2023-01-13T07:57:14;12.53;;;5.80;;
6203;SDS011;3135;42.602;23.468;2023-01-13T07:59:39;10.30;;;5.88;;
6203;SDS011;3135;42.602;23.468;2023-01-13T08:02:04;9.98;;;5.78;;
6203;SDS011;3135;42.602;23.468;2023-01-13T08:04:30;13.97;;;6.40;;
6203;SDS011;3135;42.602;23.468;2023-01-13T08:06:55;11.80;;;5.50;;
6203;SDS011;3135;42.602;23.468;2023-01-13T08:09:21;12.20;;;6.03;;
6203;SDS011;3135;42.602;23.468;2023-01-13T08:11:46;9.73;;;5.60;;
6203;SDS011;3135;42.602;23.468;2023-01-13T08:14:31;12.60;;;5.97;;
6203;SDS011;3135;42.602;23.468;2023-01-13T08:16:57;14.63;;;7.40;;
6203;SDS011;3135;42.602;23.468;2023-01-13T08:19:22;14.43;;;7.43;;
6203;SDS011;3135;42.602;23.468;2023-01-13T08:21:48;14.40;;;7.00;;
6203;SDS011;3135;42.602;23.468;2023-01-13T08:24:13;15.57;;;7.43;;
6203;SDS011;3135;42.602;23.468;2023-01-13T08:26:38;12.40;;;6.37;;
6203;SDS011;3135;42.602;23.468;2023-01-13T08:29:04;10.37;;;5.37;;
6203;SDS011;3135;42.602;23.468;2023-01-13T08:31:29;14.45;;;7.05;;
6203;SDS011;3135;42.602;23.468;2023-01-13T08:33:55;14.50;;;6.38;;
6203;SDS011;3135;42.602;23.468;2023-01-13T08:36:20;10.48;;;5.50;;
6203;SDS011;3135;42.602;23.468;2023-01-13T08:38:45;10.23;;;5.65;;
6203;SDS011;3135;42.602;23.468;2023-01-13T08:41:12;14.37;;;7.17;;
6203;SDS011;3135;42.602;23.468;2023-01-13T08:44:00;10.30;;;4.82;;
6203;SDS011;3135;42.602;23.468;2023-01-13T08:46:25;8.77;;;4.50;;
6203;SDS011;3135;42.602;23.468;2023-01-13T08:48:51;5.03;;;2.97;;
6203;SDS011;3135;42.602;23.468;2023-01-13T08:51:16;4.40;;;2.97;;
6203;SDS011;3135;42.602;23.468;2023-01-13T08:53:42;4.27;;;2.70;;
6203;SDS011;3135;42.602;23.468;2023-01-13T08:56:07;6.53;;;4.10;;
6203;SDS011;3135;42.602;23.468;2023-01-13T08:58:37;7.60;;;4.53;;
6203;SDS011;3135;42.602;23.468;2023-01-13T09:01:03;8.63;;;5.03;;
6203;SDS011;3135;42.602;23.468;2023-01-13T09:03:29;4.13;;;3.38;;
6203;SDS011;3135;42.602;23.468;2023-01-13T09:05:55;4.00;;;2.57;;
6203;SDS011;3135;42.602;23.468;2023-01-13T09:08:20;4.70;;;2.47;;
6203;SDS011;3135;42.602;23.468;2023-01-13T09:10:45;4.63;;;2.83;;
6203;SDS011;3135;42.602;23.468;2023-01-13T09:13:11;4.82;;;3.15;;
6203;SDS011;3135;42.602;23.468;2023-01-13T09:15:42;4.90;;;3.20;;
6203;SDS011;3135;42.602;23.468;2023-01-13T09:18:11;4.93;;;2.80;;
6203;SDS011;3135;42.602;23.468;2023-01-13T09:20:37;5.47;;;3.15;;
6203;SDS011;3135;42.602;23.468;2023-01-13T09:23:03;3.15;;;2.35;;
6203;SDS011;3135;42.602;23.468;2023-01-13T09:25:29;2.55;;;1.92;;
6203;SDS011;3135;42.602;23.468;2023-01-13T09:27:55;3.17;;;2.15;;
6203;SDS011;3135;42.602;23.468;2023-01-13T09:30:21;1.97;;;1.73;;
6203;SDS011;3135;42.602;23.468;2023-01-13T09:32:46;2.88;;;1.80;;
6203;SDS011;3135;42.602;23.468;2023-01-13T09:35:12;4.50;;;2.10;;
6203;SDS011;3135;42.602;23.468;2023-01-13T09:37:38;2.90;;;2.20;;
6203;SDS011;3135;42.602;23.468;2023-01-13T09:40:10;3.28;;;1.52;;
6203;SDS011;3135;42.602;23.468;2023-01-13T09:42:42;1.20;;;1.10;;
6203;SDS011;3135;42.602;23.468;2023-01-13T09:48:22;4.85;;;3.55;;
6203;SDS011;3135;42.602;23.468;2023-01-13T09:53:39;4.10;;;3.33;;
6203;SDS011;3135;42.602;23.468;2023-01-13T09:56:12;5.18;;;3.47;;
6203;SDS011;3135;42.602;23.468;2023-01-13T09:58:37;5.95;;;3.42;;
6203;SDS011;3135;42.602;23.468;2023-01-13T10:04:15;5.47;;;3.80;;
6203;SDS011;3135;42.602;23.468;2023-01-13T10:06:41;6.07;;;3.63;;
6203;SDS011;3135;42.602;23.468;2023-01-13T10:09:57;5.80;;;3.40;;
6203;SDS011;3135;42.602;23.468;2023-01-13T10:12:14;4.30;;;3.10;;
6203;SDS011;3135;42.602;23.468;2023-01-13T10:15:03;5.72;;;3.72;;
6203;SDS011;3135;42.602;23.468;2023-01-13T10:17:33;7.87;;;4.37;;
6203;SDS011;3135;42.602;23.468;2023-01-13T10:28:55;10.50;;;5.28;;
6203;SDS011;3135;42.602;23.468;2023-01-13T10:31:22;9.32;;;5.10;;
6203;SDS011;3135;42.602;23.468;2023-01-13T10:33:51;11.85;;;4.95;;
6203;SDS011;3135;42.602;23.468;2023-01-13T10:36:22;8.68;;;5.13;;
6203;SDS011;3135;42.602;23.468;2023-01-13T10:38:48;8.37;;;4.97;;
6203;SDS011;3135;42.602;23.468;2023-01-13T10:46:25;8.02;;;4.53;;
6203;SDS011;3135;42.602;23.468;2023-01-13T10:49:02;12.40;;;5.90;;
6203;SDS011;3135;42.602;23.468;2023-01-13T10:51:45;11.00;;;4.97;;
6203;SDS011;3135;42.602;23.468;2023-01-13T10:56:37;7.87;;;4.67;;
6203;SDS011;3135;42.602;23.468;2023-01-13T11:01:56;9.90;;;5.30;;
6203;SDS011;3135;42.602;23.468;2023-01-13T11:04:55;10.88;;;5.40;;
6203;SDS011;3135;42.602;23.468;2023-01-13T11:07:31;12.40;;;5.53;;
6203;SDS011;3135;42.602;23.468;2023-01-13T11:10:22;9.52;;;5.10;;
6203;SDS011;3135;42.602;23.468;2023-01-13T11:12:56;10.30;;;5.15;;
6203;SDS011;3135;42.602;23.468;2023-01-13T11:15:49;9.68;;;5.50;;
6203;SDS011;3135;42.602;23.468;2023-01-13T11:21:03;9.38;;;4.88;;
6203;SDS011;3135;42.602;23.468;2023-01-13T11:23:38;14.77;;;7.75;;
6203;SDS011;3135;42.602;23.468;2023-01-13T11:26:15;11.13;;;5.20;;
6203;SDS011;3135;42.602;23.468;2023-01-13T11:31:35;9.15;;;5.20;;
6203;SDS011;3135;42.602;23.468;2023-01-13T11:36:59;34.90;;;16.83;;
6203;SDS011;3135;42.602;23.468;2023-01-13T11:42:31;10.23;;;3.90;;
6203;SDS011;3135;42.602;23.468;2023-01-13T11:47:56;30.25;;;11.63;;
6203;SDS011;3135;42.602;23.468;2023-01-13T11:50:30;10.65;;;4.45;;
6203;SDS011;3135;42.602;23.468;2023-01-13T12:01:49;5.95;;;3.88;;
6203;SDS011;3135;42.602;23.468;2023-01-13T12:04:40;6.03;;;4.15;;
6203;SDS011;3135;42.602;23.468;2023-01-13T12:07:19;6.95;;;4.40;;
6203;SDS011;3135;42.602;23.468;2023-01-13T12:15:41;8.43;;;5.68;;
6203;SDS011;3135;42.602;23.468;2023-01-13T12:23:35;6.45;;;4.32;;
6203;SDS011;3135;42.602;23.468;2023-01-13T12:26:10;7.78;;;4.38;;
6203;SDS011;3135;42.602;23.468;2023-01-13T12:31:10;6.70;;;3.58;;
6203;SDS011;3135;42.602;23.468;2023-01-13T12:33:53;5.07;;;3.28;;
6203;SDS011;3135;42.602;23.468;2023-01-13T12:36:29;7.85;;;4.75;;
6203;SDS011;3135;42.602;23.468;2023-01-13T12:39:22;24.35;;;14.38;;
6203;SDS011;3135;42.602;23.468;2023-01-13T12:45:26;5.40;;;2.90;;
6203;SDS011;3135;42.602;23.468;2023-01-13T12:47:54;5.30;;;3.70;;
6203;SDS011;3135;42.602;23.468;2023-01-13T12:52:54;6.03;;;4.50;;
6203;SDS011;3135;42.602;23.468;2023-01-13T12:55:26;4.50;;;3.13;;
6203;SDS011;3135;42.602;23.468;2023-01-13T13:03:32;6.65;;;3.65;;
6203;SDS011;3135;42.602;23.468;2023-01-13T13:06:11;5.50;;;4.23;;
6203;SDS011;3135;42.602;23.468;2023-01-13T13:08:58;4.07;;;2.90;;
6203;SDS011;3135;42.602;23.468;2023-01-13T13:11:44;6.45;;;3.58;;
6203;SDS011;3135;42.602;23.468;2023-01-13T13:14:57;9.18;;;5.53;;
6203;SDS011;3135;42.602;23.468;2023-01-13T13:19:52;6.75;;;3.30;;
6203;SDS011;3135;42.602;23.468;2023-01-13T13:22:20;4.50;;;3.10;;
6203;SDS011;3135;42.602;23.468;2023-01-13T13:35:12;6.97;;;3.50;;
6203;SDS011;3135;42.602;23.468;2023-01-13T13:40:56;11.70;;;7.68;;
6203;SDS011;3135;42.602;23.468;2023-01-13T13:43:41;8.27;;;6.68;;
6203;SDS011;3135;42.602;23.468;2023-01-13T13:46:27;12.95;;;8.82;;
6203;SDS011;3135;42.602;23.468;2023-01-13T13:49:12;9.93;;;5.47;;
6203;SDS011;3135;42.602;23.468;2023-01-13T13:52:03;7.32;;;5.40;;
6203;SDS011;3135;42.602;23.468;2023-01-13T13:54:31;5.22;;;3.72;;
6203;SDS011;3135;42.602;23.468;2023-01-13T13:56:57;6.65;;;4.78;;
6203;SDS011;3135;42.602;23.468;2023-01-13T13:59:24;7.63;;;6.30;;
6203;SDS011;3135;42.602;23.468;2023-01-13T14:01:53;10.30;;;8.18;;
6203;SDS011;3135;42.602;23.468;2023-01-13T14:04:36;8.00;;;6.75;;
6203;SDS011;3135;42.602;23.468;2023-01-13T14:07:13;10.90;;;8.30;;
6203;SDS011;3135;42.602;23.468;2023-01-13T14:09:51;8.68;;;6.13;;
6203;SDS011;3135;42.602;23.468;2023-01-13T14:14:48;8.30;;;6.73;;
6203;SDS011;3135;42.602;23.468;2023-01-13T14:17:22;6.88;;;4.97;;
6203;SDS011;3135;42.602;23.468;2023-01-13T14:19:50;5.60;;;4.40;;
6203;SDS011;3135;42.602;23.468;2023-01-13T14:22:17;7.55;;;3.28;;
6203;SDS011;3135;42.602;23.468;2023-01-13T14:24:44;5.73;;;3.00;;
6203;SDS011;3135;42.602;23.468;2023-01-13T14:27:15;22.15;;;9.88;;
6203;SDS011;3135;42.602;23.468;2023-01-13T14:29:42;10.90;;;6.22;;
6203;SDS011;3135;42.602;23.468;2023-01-13T14:32:09;5.45;;;3.70;;
6203;SDS011;3135;42.602;23.468;2023-01-13T14:34:41;5.83;;;3.57;;
6203;SDS011;3135;42.602;23.468;2023-01-13T14:40:00;6.50;;;3.50;;
6203;SDS011;3135;42.602;23.468;2023-01-13T14:42:26;5.20;;;4.47;;
6203;SDS011;3135;42.602;23.468;2023-01-13T14:44:53;6.00;;;4.20;;
6203;SDS011;3135;42.602;23.468;2023-01-13T14:47:21;7.15;;;4.53;;
6203;SDS011;3135;42.602;23.468;2023-01-13T14:50:04;8.65;;;5.20;;
6203;SDS011;3135;42.602;23.468;2023-01-13T14:52:47;6.55;;;4.25;;
6203;SDS011;3135;42.602;23.468;2023-01-13T14:55:22;4.65;;;3.33;;
6203;SDS011;3135;42.602;23.468;2023-01-13T14:57:52;7.15;;;3.88;;
6203;SDS011;3135;42.602;23.468;2023-01-13T15:00:23;9.13;;;7.60;;
6203;SDS011;3135;42.602;23.468;2023-01-13T15:07:50;13.63;;;8.73;;
6203;SDS011;3135;42.602;23.468;2023-01-13T15:10:49;26.33;;;11.45;;
6203;SDS011;3135;42.602;23.468;2023-01-13T15:13:26;8.43;;;5.35;;
6203;SDS011;3135;42.602;23.468;2023-01-13T15:16:21;5.95;;;3.80;;
6203;SDS011;3135;42.602;23.468;2023-01-13T15:18:50;3.95;;;2.80;;
6203;SDS011;3135;42.602;23.468;2023-01-13T15:21:16;3.97;;;3.45;;
6203;SDS011;3135;42.602;23.468;2023-01-13T15:23:42;5.33;;;3.30;;
6203;SDS011;3135;42.602;23.468;2023-01-13T15:26:14;5.45;;;3.63;;
6203;SDS011;3135;42.602;23.468;2023-01-13T15:28:43;10.48;;;4.75;;
6203;SDS011;3135;42.602;23.468;2023-01-13T15:31:09;12.10;;;6.20;;
6203;SDS011;3135;42.602;23.468;2023-01-13T15:33:35;21.50;;;10.30;;
6203;SDS011;3135;42.602;23.468;2023-01-13T15:36:00;12.63;;;6.80;;
6203;SDS011;3135;42.602;23.468;2023-01-13T15:38:28;9.95;;;5.18;;
6203;SDS011;3135;42.602;23.468;2023-01-13T15:40:53;14.07;;;6.77;;
6203;SDS011;3135;42.602;23.468;2023-01-13T15:43:20;43.30;;;13.00;;
6203;SDS011;3135;42.602;23.468;2023-01-13T15:46:09;11.70;;;6.70;;
6203;SDS011;3135;42.602;23.468;2023-01-13T15:48:55;31.05;;;17.35;;
6203;SDS011;3135;42.602;23.468;2023-01-13T15:51:21;54.97;;;18.33;;
6203;SDS011;3135;42.602;23.468;2023-01-13T15:53:47;23.70;;;9.63;;
6203;SDS011;3135;42.602;23.468;2023-01-13T15:56:20;13.67;;;6.50;;
6203;SDS011;3135;42.602;23.468;2023-01-13T15:58:48;5.85;;;4.00;;
6203;SDS011;3135;42.602;23.468;2023-01-13T16:01:14;4.50;;;3.10;;
6203;SDS011;3135;42.602;23.468;2023-01-13T16:03:39;5.03;;;3.60;;
6203;SDS011;3135;42.602;23.468;2023-01-13T16:06:12;3.57;;;2.73;;
6203;SDS011;3135;42.602;23.468;2023-01-13T16:08:43;3.50;;;2.72;;
6203;SDS011;3135;42.602;23.468;2023-01-13T16:11:09;11.67;;;5.40;;
6203;SDS011;3135;42.602;23.468;2023-01-13T16:13:35;8.55;;;4.43;;
6203;SDS011;3135;42.602;23.468;2023-01-13T16:16:01;4.13;;;2.83;;
6203;SDS011;3135;42.602;23.468;2023-01-13T16:18:27;2.93;;;2.63;;
6203;SDS011;3135;42.602;23.468;2023-01-13T16:20:52;3.88;;;2.75;;
6203;SDS011;3135;42.602;23.468;2023-01-13T16:23:21;6.60;;;4.40;;
6203;SDS011;3135;42.602;23.468;2023-01-13T16:25:47;11.90;;;5.63;;
6203;SDS011;3135;42.602;23.468;2023-01-13T16:28:21;22.20;;;9.95;;
6203;SDS011;3135;42.602;23.468;2023-01-13T16:30:49;56.42;;;24.25;;
6203;SDS011;3135;42.602;23.468;2023-01-13T16:33:15;68.75;;;26.75;;
6203;SDS011;3135;42.602;23.468;2023-01-13T16:35:40;36.53;;;16.73;;
6203;SDS011;3135;42.602;23.468;2023-01-13T16:38:09;31.63;;;14.35;;
6203;SDS011;3135;42.602;23.468;2023-01-13T16:40:40;26.45;;;11.00;;
6203;SDS011;3135;42.602;23.468;2023-01-13T16:43:05;23.33;;;10.97;;
6203;SDS011;3135;42.602;23.468;2023-01-13T16:45:31;18.77;;;8.80;;
6203;SDS011;3135;42.602;23.468;2023-01-13T16:47:56;17.92;;;7.50;;
6203;SDS011;3135;42.602;23.468;2023-01-13T16:50:38;17.57;;;7.20;;
6203;SDS011;3135;42.602;23.468;2023-01-13T16:53:09;12.07;;;6.47;;
6203;SDS011;3135;42.602;23.468;2023-01-13T16:55:36;9.20;;;5.35;;
6203;SDS011;3135;42.602;23.468;2023-01-13T16:58:02;7.93;;;4.80;;
6203;SDS011;3135;42.602;23.468;2023-01-13T17:00:27;22.20;;;10.03;;
6203;SDS011;3135;42.602;23.468;2023-01-13T17:02:53;73.45;;;26.58;;
6203;SDS011;3135;42.602;23.468;2023-01-13T17:05:19;58.20;;;22.60;;
6203;SDS011;3135;42.602;23.468;2023-01-13T17:07:45;54.73;;;19.80;;
6203;SDS011;3135;42.602;23.468;2023-01-13T17:10:16;50.47;;;18.58;;
6203;SDS011;3135;42.602;23.468;2023-01-13T17:12:44;85.55;;;29.63;;
6203;SDS011;3135;42.602;23.468;2023-01-13T17:15:10;47.77;;;17.67;;
6203;SDS011;3135;42.602;23.468;2023-01-13T17:17:37;34.40;;;12.82;;
6203;SDS011;3135;42.602;23.468;2023-01-13T17:20:05;31.35;;;11.65;;
6203;SDS011;3135;42.602;23.468;2023-01-13T17:22:33;23.05;;;9.38;;
6203;SDS011;3135;42.602;23.468;2023-01-13T17:24:59;28.75;;;11.68;;
6203;SDS011;3135;42.602;23.468;2023-01-13T17:27:24;31.03;;;12.53;;
6203;SDS011;3135;42.602;23.468;2023-01-13T17:29:50;49.87;;;18.17;;
6203;SDS011;3135;42.602;23.468;2023-01-13T17:32:16;28.60;;;12.53;;
6203;SDS011;3135;42.602;23.468;2023-01-13T17:34:43;19.95;;;10.25;;
6203;SDS011;3135;42.602;23.468;2023-01-13T17:37:09;20.55;;;10.20;;
6203;SDS011;3135;42.602;23.468;2023-01-13T17:39:38;13.60;;;8.00;;
6203;SDS011;3135;42.602;23.468;2023-01-13T17:42:04;11.52;;;4.80;;
6203;SDS011;3135;42.602;23.468;2023-01-13T17:44:30;5.80;;;3.80;;
6203;SDS011;3135;42.602;23.468;2023-01-13T17:46:55;11.52;;;4.00;;